createdAt,value
2022-11-17T00:00:42.933Z,99602.63
2022-11-17T00:03:15.382Z,99597.04
2022-11-17T00:05:44.475Z,99596.29
2022-11-17T00:08:12.718Z,99593.52
2022-11-17T00:10:40.376Z,99595.73
2022-11-17T00:13:26.594Z,99595.36
2022-11-17T00:15:54.275Z,99593.59
2022-11-17T00:18:37.900Z,99596.10
2022-11-17T00:21:21.948Z,99595.45
2022-11-17T00:23:50.705Z,99593.98
2022-11-17T00:26:24.287Z,99594.56
2022-11-17T00:28:53.736Z,99593.52
2022-11-17T00:31:38.729Z,99595.30
2022-11-17T00:34:06.705Z,99592.61
2022-11-17T00:36:40.533Z,99594.27
2022-11-17T00:39:09.805Z,99597.08
2022-11-17T00:41:37.669Z,99594.85
2022-11-17T00:44:06.276Z,99598.83
2022-11-17T00:46:35.137Z,99604.75
2022-11-17T00:49:03.930Z,99603.08
2022-11-17T00:51:32.294Z,99603.42
2022-11-17T00:54:00.897Z,99604.61
2022-11-17T00:56:29.051Z,99608.42
2022-11-17T00:58:57.150Z,99608.42
2022-11-17T01:01:25.269Z,99608.70
2022-11-17T01:04:03.120Z,99610.36
2022-11-17T01:06:37.121Z,99609.05
2022-11-17T01:09:22.088Z,99611.73
2022-11-17T01:11:51.845Z,99606.59
2022-11-17T01:14:22.733Z,99607.73
2022-11-17T01:16:50.841Z,99599.73
2022-11-17T01:19:19.588Z,99599.98
2022-11-17T01:21:48.027Z,99594.80
2022-11-17T01:24:17.032Z,99594.33
2022-11-17T01:26:46.278Z,99596.94
2022-11-17T01:29:17.041Z,99598.23
2022-11-17T01:31:49.166Z,99601.27
2022-11-17T01:34:17.043Z,99597.25
2022-11-17T01:37:01.208Z,99595.11
2022-11-17T01:39:29.739Z,99591.82
2022-11-17T01:41:58.156Z,99586.38
2022-11-17T01:44:41.777Z,99584.77
2022-11-17T01:47:18.624Z,99584.97
2022-11-17T01:49:48.226Z,99583.34
2022-11-17T01:52:16.461Z,99584.94
2022-11-17T01:54:47.325Z,99582.06
2022-11-17T01:57:23.796Z,99584.77
2022-11-17T01:59:57.973Z,99587.38
2022-11-17T02:02:26.064Z,99584.99
2022-11-17T02:05:24.659Z,99588.48
2022-11-17T02:07:54.770Z,99585.73
2022-11-17T02:10:22.433Z,99587.30
2022-11-17T02:12:50.708Z,99582.59
2022-11-17T02:15:18.588Z,99577.98
2022-11-17T02:17:46.294Z,99574.59
2022-11-17T02:20:50.875Z,99571.04
2022-11-17T02:23:37.737Z,99571.16
2022-11-17T02:26:25.476Z,99568.41
2022-11-17T02:29:16.929Z,99567.86
2022-11-17T02:31:58.269Z,99564.05
2022-11-17T02:34:32.604Z,99563.33
2022-11-17T02:37:20.595Z,99564.70
2022-11-17T02:40:05.539Z,99560.28
2022-11-17T02:43:01.082Z,99566.27
2022-11-17T02:45:43.612Z,99563.02
2022-11-17T02:48:22.933Z,99565.34
2022-11-17T02:50:52.829Z,99561.55
2022-11-17T02:53:24.406Z,99565.04
2022-11-17T02:55:53.368Z,99567.59
2022-11-17T02:58:21.548Z,99567.97
2022-11-17T03:01:26.551Z,99569.66
2022-11-17T03:04:08.038Z,99564.63
2022-11-17T03:06:55.230Z,99563.27
2022-11-17T03:09:41.545Z,99564.50
2022-11-17T03:12:27.888Z,99564.55
2022-11-17T03:15:16.762Z,99561.06
2022-11-17T03:18:06.794Z,99562.28
2022-11-17T03:20:49.884Z,99563.71
2022-11-17T03:23:23.485Z,99564.88
2022-11-17T03:25:57.842Z,99568.89
2022-11-17T03:28:29.783Z,99567.97
2022-11-17T03:30:59.628Z,99569.15
2022-11-17T03:33:28.856Z,99569.52
2022-11-17T03:36:08.384Z,99563.58
2022-11-17T03:38:41.686Z,99562.23
2022-11-17T03:41:13.763Z,99559.90
2022-11-17T03:43:43.914Z,99559.49
2022-11-17T03:46:17.111Z,99558.31
2022-11-17T03:48:50.631Z,99557.70
2022-11-17T03:51:23.056Z,99553.28
2022-11-17T03:53:52.243Z,99552.32
2022-11-17T03:56:38.646Z,99553.52
2022-11-17T03:59:12.746Z,99554.33
2022-11-17T04:01:40.741Z,99554.14
2022-11-17T04:04:14.772Z,99556.73
2022-11-17T04:06:42.515Z,99556.36
2022-11-17T04:09:10.190Z,99559.09
2022-11-17T04:11:53.846Z,99564.58
2022-11-17T04:14:36.445Z,99562.10
2022-11-17T04:17:04.276Z,99561.83
2022-11-17T04:19:31.929Z,99558.91
2022-11-17T04:21:59.547Z,99562.02
2022-11-17T04:24:27.398Z,99567.52
2022-11-17T04:27:11.245Z,99565.45
2022-11-17T04:29:38.859Z,99563.45
2022-11-17T04:32:06.456Z,99556.41
2022-11-17T04:34:34.072Z,99555.23
2022-11-17T04:37:06.991Z,99553.55
2022-11-17T04:39:38.781Z,99554.70
2022-11-17T04:42:06.375Z,99549.58
2022-11-17T04:44:34.007Z,99550.84
2022-11-17T04:47:04.515Z,99553.84
2022-11-17T04:49:33.245Z,99551.51
2022-11-17T04:52:01.620Z,99550.91
2022-11-17T04:54:29.329Z,99545.71
2022-11-17T04:56:57.344Z,99550.51
2022-11-17T04:59:25.641Z,99553.75
2022-11-17T05:01:53.340Z,99552.43
2022-11-17T05:04:38.035Z,99554.27
2022-11-17T05:07:07.226Z,99552.23
2022-11-17T05:09:35.403Z,99555.65
2022-11-17T05:12:19.466Z,99554.67
2022-11-17T05:14:49.023Z,99558.02
2022-11-17T05:17:17.571Z,99555.22
2022-11-17T05:19:47.320Z,99553.52
2022-11-17T05:22:38.177Z,99550.33
2022-11-17T05:25:06.721Z,99547.52
2022-11-17T05:27:34.783Z,99546.82
2022-11-17T05:30:05.254Z,99549.89
2022-11-17T05:32:32.875Z,99551.73
2022-11-17T05:35:00.598Z,99555.14
2022-11-17T05:37:28.309Z,99551.90
2022-11-17T05:39:55.906Z,99550.81
2022-11-17T05:42:23.591Z,99548.84
2022-11-17T05:44:51.273Z,99544.17
2022-11-17T05:47:18.922Z,99541.41
2022-11-17T05:49:46.551Z,99535.59
2022-11-17T05:52:14.213Z,99537.66
2022-11-17T05:54:41.917Z,99540.33
2022-11-17T05:57:16.473Z,99546.59
2022-11-17T05:59:48.746Z,99544.70
2022-11-17T06:02:25.633Z,99545.33
2022-11-17T06:04:53.273Z,99545.59
2022-11-17T06:07:21.189Z,99542.39
2022-11-17T06:09:50.091Z,99542.00
2022-11-17T06:12:17.752Z,99542.20
2022-11-17T06:14:45.357Z,99542.82
2022-11-17T06:17:22.586Z,99546.33
2022-11-17T06:19:57.671Z,99553.14
2022-11-17T06:22:26.867Z,99553.48
2022-11-17T06:24:55.340Z,99557.86
2022-11-17T06:27:25.365Z,99559.14
2022-11-17T06:29:55.053Z,99559.52
2022-11-17T06:32:23.289Z,99559.00
2022-11-17T06:34:56.118Z,99557.41
2022-11-17T06:37:25.122Z,99558.96
2022-11-17T06:39:52.838Z,99562.50
2022-11-17T06:42:40.439Z,99564.26
2022-11-17T06:45:08.943Z,99560.58
2022-11-17T06:47:36.753Z,99565.20
2022-11-17T06:50:05.052Z,99567.20
2022-11-17T06:52:32.697Z,99574.01
2022-11-17T06:55:00.416Z,99564.57
2022-11-17T06:57:29.948Z,99559.94
2022-11-17T06:59:57.619Z,99563.54
2022-11-17T07:02:25.230Z,99560.85
2022-11-17T07:04:52.851Z,99563.45
2022-11-17T07:07:20.714Z,99567.37
2022-11-17T07:09:48.382Z,99565.64
2022-11-17T07:12:16.149Z,99562.79
2022-11-17T07:14:43.816Z,99570.01
2022-11-17T07:17:11.406Z,99569.19
2022-11-17T07:19:40.178Z,99568.90
2022-11-17T07:22:07.814Z,99565.59
2022-11-17T07:24:35.505Z,99568.20
2022-11-17T07:27:04.674Z,99571.51
2022-11-17T07:29:32.654Z,99572.36
2022-11-17T07:32:00.335Z,99576.95
2022-11-17T07:34:27.929Z,99579.58
2022-11-17T07:36:55.564Z,99578.92
2022-11-17T07:39:23.247Z,99581.06
2022-11-17T07:41:50.904Z,99578.48
2022-11-17T07:44:18.503Z,99577.17
2022-11-17T07:46:46.110Z,99570.89
2022-11-17T07:49:13.785Z,99573.10
2022-11-17T07:51:41.443Z,99566.61
2022-11-17T07:54:09.054Z,99565.21
2022-11-17T07:56:36.658Z,99571.02
2022-11-17T07:59:04.299Z,99573.45
2022-11-17T08:01:32.622Z,99571.05
2022-11-17T08:04:01.002Z,99568.95
2022-11-17T08:06:28.742Z,99572.19
2022-11-17T08:08:56.449Z,99566.52
2022-11-17T08:11:24.948Z,99570.70
2022-11-17T08:13:57.142Z,99571.84
2022-11-17T08:16:31.078Z,99564.89
2022-11-17T08:19:07.015Z,99565.75
2022-11-17T08:21:36.659Z,99567.60
2022-11-17T08:24:05.040Z,99574.34
2022-11-17T08:26:33.656Z,99578.75
2022-11-17T08:29:01.973Z,99575.83
2022-11-17T08:31:29.984Z,99571.70
2022-11-17T08:34:17.911Z,99568.44
2022-11-17T08:36:53.477Z,99572.86
2022-11-17T08:39:31.181Z,99574.73
2022-11-17T08:41:58.812Z,99576.05
2022-11-17T08:44:26.472Z,99575.64
2022-11-17T08:46:54.098Z,99571.20
2022-11-17T08:49:21.809Z,99575.27
2022-11-17T08:51:49.491Z,99578.07
2022-11-17T08:54:17.083Z,99579.42
2022-11-17T08:56:46.243Z,99578.58
2022-11-17T08:59:13.920Z,99579.16
2022-11-17T09:01:41.654Z,99574.16
2022-11-17T09:04:09.547Z,99573.38
2022-11-17T09:06:38.265Z,99573.88
2022-11-17T09:09:07.691Z,99572.27
2022-11-17T09:11:35.644Z,99571.08
2022-11-17T09:14:03.607Z,99568.09
2022-11-17T09:16:31.235Z,99567.35
2022-11-17T09:18:59.083Z,99570.91
2022-11-17T09:21:27.168Z,99568.45
2022-11-17T09:23:54.789Z,99564.50
2022-11-17T09:26:22.568Z,99564.27
2022-11-17T09:28:50.384Z,99565.48
2022-11-17T09:31:22.033Z,99554.88
2022-11-17T09:33:50.290Z,99553.30
2022-11-17T09:36:18.817Z,99557.95
2022-11-17T09:38:46.963Z,99556.80
2022-11-17T09:41:38.880Z,99561.57
2022-11-17T09:44:26.085Z,99556.35
2022-11-17T09:47:07.171Z,99554.38
2022-11-17T09:49:56.811Z,99552.06
2022-11-17T09:52:46.798Z,99544.98
2022-11-17T09:55:22.471Z,99543.85
2022-11-17T09:58:05.382Z,99546.36
2022-11-17T10:00:35.670Z,99546.54
2022-11-17T10:03:16.062Z,99552.55
2022-11-17T10:05:43.768Z,99542.56
2022-11-17T10:08:19.106Z,99540.65
2022-11-17T10:10:51.817Z,99538.63
2022-11-17T10:13:37.840Z,99530.94
2022-11-17T10:16:11.940Z,99528.29
2022-11-17T10:18:39.770Z,99532.36
2022-11-17T10:21:09.141Z,99527.39
2022-11-17T10:23:54.371Z,99525.84
2022-11-17T10:26:22.040Z,99531.63
2022-11-17T10:29:08.857Z,99529.75
2022-11-17T10:31:43.187Z,99525.77
2022-11-17T10:34:11.978Z,99518.05
2022-11-17T10:36:48.286Z,99519.52
2022-11-17T10:39:33.697Z,99522.13
2022-11-17T10:42:14.969Z,99524.93
2022-11-17T10:44:44.615Z,99523.05
2022-11-17T10:47:35.411Z,99523.30
2022-11-17T10:50:22.205Z,99524.12
2022-11-17T10:52:51.742Z,99528.48
2022-11-17T10:55:35.360Z,99527.73
2022-11-17T10:58:33.133Z,99528.41
2022-11-17T11:01:04.570Z,99524.54
2022-11-17T11:03:35.207Z,99523.03
2022-11-17T11:06:26.704Z,99527.47
2022-11-17T11:08:59.377Z,99521.98
2022-11-17T11:11:39.395Z,99519.24
2022-11-17T11:14:15.309Z,99523.36
2022-11-17T11:16:48.444Z,99524.66
2022-11-17T11:19:18.265Z,99525.00
2022-11-17T11:22:02.816Z,99529.14
2022-11-17T11:24:52.872Z,99522.67
2022-11-17T11:27:35.509Z,99512.43
2022-11-17T11:30:13.100Z,99509.77
2022-11-17T11:33:11.563Z,99503.90
2022-11-17T11:36:01.197Z,99498.63
2022-11-17T11:38:28.797Z,99494.73
2022-11-17T11:41:15.437Z,99492.60
2022-11-17T11:44:13.299Z,99489.34
2022-11-17T11:47:01.159Z,99483.52
2022-11-17T11:49:38.130Z,99482.20
2022-11-17T11:52:14.280Z,99482.25
2022-11-17T11:54:58.798Z,99474.37
2022-11-17T11:57:34.919Z,99475.15
2022-11-17T12:00:07.630Z,99472.89
2022-11-17T12:02:50.198Z,99471.60
2022-11-17T12:05:34.291Z,99469.02
2022-11-17T12:08:26.035Z,99464.61
2022-11-17T12:11:27.691Z,99463.56
2022-11-17T12:13:57.061Z,99463.08
2022-11-17T12:16:33.653Z,99456.39
2022-11-17T12:19:02.027Z,99449.88
2022-11-17T12:21:31.484Z,99443.95
2022-11-17T12:24:25.037Z,99445.48
2022-11-17T12:27:13.598Z,99445.02
2022-11-17T12:29:47.442Z,99441.16
2022-11-17T12:32:50.921Z,99438.47
2022-11-17T12:35:37.247Z,99439.80
2022-11-17T12:38:21.071Z,99432.77
2022-11-17T12:40:53.930Z,99434.73
2022-11-17T12:43:23.356Z,99431.92
2022-11-17T12:46:23.512Z,99435.51
2022-11-17T12:49:06.841Z,99432.35
2022-11-17T12:51:45.637Z,99430.35
2022-11-17T12:54:24.891Z,99434.71
2022-11-17T12:57:13.845Z,99439.77
2022-11-17T13:00:05.252Z,99440.66
2022-11-17T13:03:09.324Z,99439.55
2022-11-17T13:05:38.034Z,99438.10
2022-11-17T13:10:32.618Z,99433.40
2022-11-17T13:13:19.411Z,99430.66
2022-11-17T13:15:53.588Z,99433.04
2022-11-17T13:18:43.035Z,99436.96
2022-11-17T13:21:29.620Z,99434.25
2022-11-17T13:23:58.892Z,99442.29
2022-11-17T13:26:35.593Z,99441.77
2022-11-17T13:29:19.113Z,99442.97
2022-11-17T13:31:46.790Z,99441.02
2022-11-17T13:34:18.222Z,99443.65
2022-11-17T13:36:54.590Z,99439.59
2022-11-17T13:39:27.061Z,99434.40
2022-11-17T13:42:01.197Z,99426.27
2022-11-17T13:44:29.058Z,99425.18
2022-11-17T13:46:56.686Z,99420.04
2022-11-17T13:49:40.271Z,99424.35
2022-11-17T13:52:34.599Z,99420.95
2022-11-17T13:55:15.076Z,99427.27
2022-11-17T13:58:05.405Z,99426.23
2022-11-17T14:00:34.288Z,99430.59
2022-11-17T14:03:04.822Z,99426.34
2022-11-17T14:05:33.608Z,99422.33
2022-11-17T14:08:22.933Z,99421.81
2022-11-17T14:11:09.731Z,99425.60
2022-11-17T14:13:38.629Z,99425.70
2022-11-17T14:16:20.195Z,99429.60
2022-11-17T14:19:24.107Z,99429.85
2022-11-17T14:21:59.740Z,99427.77
2022-11-17T14:24:28.313Z,99426.95
2022-11-17T14:26:56.327Z,99423.95
2022-11-17T14:29:24.317Z,99422.27
2022-11-17T14:31:51.972Z,99422.02
2022-11-17T14:34:21.295Z,99424.88
2022-11-17T14:36:56.031Z,99423.88
2022-11-17T14:39:23.752Z,99424.22
2022-11-17T14:41:51.459Z,99419.83
2022-11-17T14:44:19.139Z,99419.59
2022-11-17T14:46:46.826Z,99418.55
2022-11-17T14:49:14.775Z,99418.56
2022-11-17T14:51:42.617Z,99418.34
2022-11-17T14:54:10.320Z,99416.75
2022-11-17T14:56:37.938Z,99420.23
2022-11-17T14:59:05.572Z,99420.70
2022-11-17T15:01:38.295Z,99417.45
2022-11-17T15:04:21.089Z,99418.92
2022-11-17T15:06:54.745Z,99411.90
2022-11-17T15:09:22.620Z,99414.37
2022-11-17T15:11:51.892Z,99411.27
2022-11-17T15:14:20.155Z,99415.95
2022-11-17T15:16:47.818Z,99412.70
2022-11-17T15:19:15.521Z,99415.30
2022-11-17T15:21:44.175Z,99418.58
2022-11-17T15:24:11.834Z,99421.29
2022-11-17T15:26:39.490Z,99426.81
2022-11-17T15:29:13.368Z,99427.65
2022-11-17T15:31:43.441Z,99429.98
2022-11-17T15:34:20.499Z,99428.59
2022-11-17T15:36:49.315Z,99430.00
2022-11-17T15:39:18.717Z,99428.32
2022-11-17T15:41:48.732Z,99429.95
2022-11-17T15:44:16.589Z,99429.67
2022-11-17T15:46:47.683Z,99432.25
2022-11-17T15:49:16.341Z,99432.90
2022-11-17T15:51:44.302Z,99428.25
2022-11-17T15:54:19.698Z,99426.56
2022-11-17T15:56:49.541Z,99424.14
2022-11-17T15:59:17.825Z,99420.13
2022-11-17T16:01:45.968Z,99416.05
2022-11-17T16:04:15.788Z,99414.82
2022-11-17T16:06:49.388Z,99414.26
2022-11-17T16:09:20.494Z,99413.66
2022-11-17T16:11:52.224Z,99412.33
2022-11-17T16:14:20.729Z,99415.56
2022-11-17T16:16:49.564Z,99412.05
2022-11-17T16:19:17.659Z,99405.17
2022-11-17T16:21:45.586Z,99403.11
2022-11-17T16:24:13.426Z,99406.88
2022-11-17T16:26:41.094Z,99416.67
2022-11-17T16:29:08.791Z,99418.07
2022-11-17T16:31:37.740Z,99414.25
2022-11-17T16:34:10.320Z,99404.77
2022-11-17T16:36:39.582Z,99404.85
2022-11-17T16:39:12.442Z,99404.10
2022-11-17T16:41:42.651Z,99401.86
2022-11-17T16:44:12.804Z,99400.67
2022-11-17T16:46:43.056Z,99402.94
2022-11-17T16:49:12.755Z,99401.58
2022-11-17T16:51:41.329Z,99404.21
2022-11-17T16:54:12.344Z,99407.25
2022-11-17T16:56:40.135Z,99410.10
2022-11-17T16:59:12.164Z,99409.23
2022-11-17T17:01:40.086Z,99409.77
2022-11-17T17:04:10.050Z,99414.17
2022-11-17T17:06:42.537Z,99413.85
2022-11-17T17:09:12.616Z,99413.97
2022-11-17T17:11:40.670Z,99411.08
2022-11-17T17:14:11.779Z,99412.44
2022-11-17T17:16:39.955Z,99407.30
2022-11-17T17:19:10.149Z,99403.04
2022-11-17T17:21:38.837Z,99404.75
2022-11-17T17:24:07.398Z,99400.06
2022-11-17T17:26:36.360Z,99395.73
2022-11-17T17:29:05.791Z,99396.06
2022-11-17T17:31:36.443Z,99394.34
2022-11-17T17:34:06.251Z,99387.09
2022-11-17T17:36:35.328Z,99379.33
2022-11-17T17:39:04.059Z,99378.43
2022-11-17T17:41:34.463Z,99377.77
2022-11-17T17:44:05.452Z,99378.07
2022-11-17T17:46:40.929Z,99375.48
2022-11-17T17:49:10.237Z,99378.19
2022-11-17T17:51:44.178Z,99371.76
2022-11-17T17:54:50.000Z,99366.38
2022-11-17T17:57:17.662Z,99372.48
2022-11-17T17:59:45.335Z,99373.45
2022-11-17T18:02:12.946Z,99373.38
2022-11-17T18:04:40.648Z,99372.29
2022-11-17T18:07:08.456Z,99372.23
2022-11-17T18:09:36.101Z,99371.27
2022-11-17T18:12:03.964Z,99365.80
2022-11-17T18:14:31.586Z,99366.95
2022-11-17T18:16:59.309Z,99365.44
2022-11-17T18:19:32.726Z,99367.11
2022-11-17T18:22:01.286Z,99371.25
2022-11-17T18:24:28.871Z,99368.80
2022-11-17T18:26:56.517Z,99365.02
2022-11-17T18:29:24.657Z,99364.27
2022-11-17T18:31:52.254Z,99361.71
2022-11-17T18:34:22.651Z,99355.56
2022-11-17T18:36:52.146Z,99355.83
2022-11-17T18:39:21.160Z,99355.95
2022-11-17T18:41:48.895Z,99347.76
2022-11-17T18:44:19.377Z,99348.98
2022-11-17T18:46:47.593Z,99348.63
2022-11-17T18:49:15.619Z,99347.01
2022-11-17T18:51:43.546Z,99348.20
2022-11-17T18:54:12.351Z,99344.02
2022-11-17T18:56:40.306Z,99343.02
2022-11-17T18:59:11.688Z,99339.42
2022-11-17T19:01:41.777Z,99341.41
2022-11-17T19:04:11.376Z,99338.45
2022-11-17T19:06:39.000Z,99340.75
2022-11-17T19:09:08.048Z,99343.26
2022-11-17T19:11:35.785Z,99343.16
2022-11-17T19:14:05.239Z,99344.14
2022-11-17T19:16:41.053Z,99348.61
2022-11-17T19:19:14.092Z,99344.05
2022-11-17T19:21:45.117Z,99340.10
2022-11-17T19:24:13.825Z,99332.92
2022-11-17T19:26:42.691Z,99325.10
2022-11-17T19:29:16.797Z,99327.36
2022-11-17T19:31:46.243Z,99327.28
2022-11-17T19:34:15.508Z,99332.88
2022-11-17T19:36:44.312Z,99331.97
2022-11-17T19:39:13.268Z,99332.38
2022-11-17T19:41:41.303Z,99331.11
2022-11-17T19:44:09.375Z,99332.71
2022-11-17T19:46:37.637Z,99337.60
2022-11-17T19:49:07.417Z,99338.76
2022-11-17T19:51:36.845Z,99336.09
2022-11-17T19:54:07.883Z,99337.52
2022-11-17T19:56:36.675Z,99339.26
2022-11-17T19:59:04.935Z,99341.61
2022-11-17T20:01:33.651Z,99344.83
2022-11-17T20:04:01.908Z,99340.03
2022-11-17T20:06:35.816Z,99339.95
2022-11-17T20:09:09.222Z,99332.73
2022-11-17T20:11:37.420Z,99331.94
2022-11-17T20:14:05.476Z,99329.82
2022-11-17T20:16:33.340Z,99327.61
2022-11-17T20:19:01.943Z,99326.73
2022-11-17T20:21:30.985Z,99326.24
2022-11-17T20:23:59.507Z,99326.13
2022-11-17T20:26:30.275Z,99325.09
2022-11-17T20:28:58.956Z,99324.63
2022-11-17T20:31:32.142Z,99325.01
2022-11-17T20:34:01.507Z,99321.16
2022-11-17T20:36:31.752Z,99328.04
2022-11-17T20:39:05.723Z,99324.36
2022-11-17T20:41:33.724Z,99324.95
2022-11-17T20:44:03.118Z,99320.99
2022-11-17T20:46:31.081Z,99307.88
2022-11-17T20:48:58.813Z,99303.02
2022-11-17T20:51:26.930Z,99301.20
2022-11-17T20:53:54.573Z,99296.90
2022-11-17T20:56:22.654Z,99294.63
2022-11-17T20:58:50.250Z,99290.63
2022-11-17T21:01:23.963Z,99289.87
2022-11-17T21:03:52.443Z,99287.37
2022-11-17T21:06:22.989Z,99292.01
2022-11-17T21:08:51.340Z,99292.14
2022-11-17T21:11:37.208Z,99295.69
2022-11-17T21:14:07.124Z,99288.66
2022-11-17T21:16:37.667Z,99294.00
2022-11-17T21:19:05.726Z,99293.20
2022-11-17T21:21:33.579Z,99291.52
2022-11-17T21:24:01.212Z,99296.30
2022-11-17T21:26:29.222Z,99291.98
2022-11-17T21:29:01.769Z,99290.17
2022-11-17T21:31:32.845Z,99288.91
2022-11-17T21:34:06.167Z,99292.28
2022-11-17T21:36:35.675Z,99292.89
2022-11-17T21:39:04.435Z,99295.84
2022-11-17T21:41:37.677Z,99293.64
2022-11-17T21:44:05.513Z,99290.08
2022-11-17T21:46:34.899Z,99286.98
2022-11-17T21:49:02.573Z,99292.20
2022-11-17T21:51:38.061Z,99284.39
2022-11-17T21:54:08.486Z,99284.71
2022-11-17T21:56:36.554Z,99278.75
2022-11-17T21:59:06.929Z,99275.38
2022-11-17T22:01:34.915Z,99268.59
2022-11-17T22:04:02.991Z,99265.13
2022-11-17T22:06:30.961Z,99269.41
2022-11-17T22:08:59.644Z,99264.66
2022-11-17T22:11:35.276Z,99267.80
2022-11-17T22:14:22.089Z,99268.68
2022-11-17T22:16:52.036Z,99269.46
2022-11-17T22:19:22.455Z,99268.31
2022-11-17T22:21:52.713Z,99262.55
2022-11-17T22:24:22.704Z,99264.61
2022-11-17T22:26:51.500Z,99264.77
2022-11-17T22:29:21.460Z,99258.94
2022-11-17T22:31:49.676Z,99264.41
2022-11-17T22:34:18.475Z,99263.69
2022-11-17T22:36:46.432Z,99262.20
2022-11-17T22:39:15.719Z,99265.23
2022-11-17T22:41:43.681Z,99264.84
2022-11-17T22:44:15.657Z,99268.77
2022-11-17T22:46:43.833Z,99265.25
2022-11-17T22:49:12.608Z,99265.67
2022-11-17T22:51:56.273Z,99268.00
2022-11-17T22:54:23.877Z,99270.70
2022-11-17T22:56:51.474Z,99274.66
2022-11-17T22:59:21.034Z,99275.17
2022-11-17T23:01:48.739Z,99272.30
2022-11-17T23:04:16.870Z,99269.04
2022-11-17T23:06:45.130Z,99264.59
2022-11-17T23:09:13.700Z,99268.85
2022-11-17T23:11:42.370Z,99265.02
2022-11-17T23:14:12.879Z,99262.91
2022-11-17T23:16:41.141Z,99259.69
2022-11-17T23:19:12.570Z,99258.39
2022-11-17T23:21:41.187Z,99254.55
2022-11-17T23:24:12.588Z,99254.37
2022-11-17T23:26:42.163Z,99254.92
2022-11-17T23:29:10.307Z,99257.75
2022-11-17T23:31:38.118Z,99251.57
2022-11-17T23:34:09.074Z,99244.71
2022-11-17T23:36:36.913Z,99246.46
2022-11-17T23:39:04.932Z,99245.61
2022-11-17T23:41:32.765Z,99242.61
2022-11-17T23:44:00.734Z,99240.48
2022-11-17T23:46:28.608Z,99240.07
2022-11-17T23:48:57.237Z,99242.20
2022-11-17T23:51:26.925Z,99243.43
2022-11-17T23:53:54.658Z,99243.57
2022-11-17T23:56:23.155Z,99246.58
2022-11-17T23:58:51.612Z,99242.30
